sensor_id;sensor_type;location;lat;lon;timestamp;P1;durP1;ratioP1;P2;durP2;ratioP2
39898;SDS011;25571;47.876;10.642;2024-01-11T00:00:09;19.80;;;11.93;;
39898;SDS011;25571;47.876;10.642;2024-01-11T00:02:35;19.13;;;11.13;;
39898;SDS011;25571;47.876;10.642;2024-01-11T00:05:00;17.95;;;10.30;;
39898;SDS011;25571;47.876;10.642;2024-01-11T00:07:27;21.85;;;12.25;;
39898;SDS011;25571;47.876;10.642;2024-01-11T00:09:52;23.25;;;12.48;;
39898;SDS011;25571;47.876;10.642;2024-01-11T00:12:18;19.95;;;11.57;;
39898;SDS011;25571;47.876;10.642;2024-01-11T00:14:43;19.90;;;11.85;;
39898;SDS011;25571;47.876;10.642;2024-01-11T00:17:09;22.27;;;13.00;;
39898;SDS011;25571;47.876;10.642;2024-01-11T00:19:34;21.38;;;12.00;;
39898;SDS011;25571;47.876;10.642;2024-01-11T00:22:00;22.67;;;12.25;;
39898;SDS011;25571;47.876;10.642;2024-01-11T00:24:26;21.50;;;12.27;;
39898;SDS011;25571;47.876;10.642;2024-01-11T00:26:51;20.05;;;11.70;;
39898;SDS011;25571;47.876;10.642;2024-01-11T00:29:17;18.60;;;11.18;;
39898;SDS011;25571;47.876;10.642;2024-01-11T00:31:42;16.95;;;10.25;;
39898;SDS011;25571;47.876;10.642;2024-01-11T00:34:08;17.42;;;10.07;;
39898;SDS011;25571;47.876;10.642;2024-01-11T00:36:34;18.15;;;9.95;;
39898;SDS011;25571;47.876;10.642;2024-01-11T00:39:00;15.18;;;9.77;;
39898;SDS011;25571;47.876;10.642;2024-01-11T00:41:25;14.93;;;9.88;;
39898;SDS011;25571;47.876;10.642;2024-01-11T00:43:51;14.68;;;9.20;;
39898;SDS011;25571;47.876;10.642;2024-01-11T00:46:16;15.55;;;10.02;;
39898;SDS011;25571;47.876;10.642;2024-01-11T00:48:42;13.77;;;8.93;;
39898;SDS011;25571;47.876;10.642;2024-01-11T00:51:08;13.93;;;8.13;;
39898;SDS011;25571;47.876;10.642;2024-01-11T00:53:33;10.45;;;7.35;;
39898;SDS011;25571;47.876;10.642;2024-01-11T00:55:59;13.02;;;8.13;;
39898;SDS011;25571;47.876;10.642;2024-01-11T00:58:25;10.23;;;6.88;;
39898;SDS011;25571;47.876;10.642;2024-01-11T01:00:51;16.15;;;9.15;;
39898;SDS011;25571;47.876;10.642;2024-01-11T01:03:18;14.50;;;9.30;;
39898;SDS011;25571;47.876;10.642;2024-01-11T01:05:44;11.73;;;8.07;;
39898;SDS011;25571;47.876;10.642;2024-01-11T01:08:11;12.32;;;7.65;;
39898;SDS011;25571;47.876;10.642;2024-01-11T01:10:36;13.52;;;8.10;;
39898;SDS011;25571;47.876;10.642;2024-01-11T01:13:02;13.00;;;8.07;;
39898;SDS011;25571;47.876;10.642;2024-01-11T01:15:28;13.20;;;8.68;;
39898;SDS011;25571;47.876;10.642;2024-01-11T01:17:53;14.43;;;9.13;;
39898;SDS011;25571;47.876;10.642;2024-01-11T01:20:19;13.75;;;8.57;;
39898;SDS011;25571;47.876;10.642;2024-01-11T01:22:45;15.25;;;8.85;;
39898;SDS011;25571;47.876;10.642;2024-01-11T01:25:10;17.70;;;9.60;;
39898;SDS011;25571;47.876;10.642;2024-01-11T01:27:36;20.00;;;11.10;;
39898;SDS011;25571;47.876;10.642;2024-01-11T01:30:02;19.90;;;10.82;;
39898;SDS011;25571;47.876;10.642;2024-01-11T01:32:28;24.58;;;12.43;;
39898;SDS011;25571;47.876;10.642;2024-01-11T01:34:55;22.67;;;11.40;;
39898;SDS011;25571;47.876;10.642;2024-01-11T01:37:21;21.42;;;11.15;;
39898;SDS011;25571;47.876;10.642;2024-01-11T01:39:46;24.67;;;11.10;;
39898;SDS011;25571;47.876;10.642;2024-01-11T01:42:12;24.55;;;12.32;;
39898;SDS011;25571;47.876;10.642;2024-01-11T01:44:37;24.98;;;12.18;;
39898;SDS011;25571;47.876;10.642;2024-01-11T01:47:05;21.73;;;12.32;;
39898;SDS011;25571;47.876;10.642;2024-01-11T01:49:32;25.98;;;12.98;;
39898;SDS011;25571;47.876;10.642;2024-01-11T01:51:58;29.85;;;14.80;;
39898;SDS011;25571;47.876;10.642;2024-01-11T01:54:24;22.75;;;12.52;;
39898;SDS011;25571;47.876;10.642;2024-01-11T01:56:50;24.40;;;12.15;;
39898;SDS011;25571;47.876;10.642;2024-01-11T01:59:17;28.67;;;12.80;;
39898;SDS011;25571;47.876;10.642;2024-01-11T02:01:44;28.30;;;13.35;;
39898;SDS011;25571;47.876;10.642;2024-01-11T02:04:10;28.13;;;13.13;;
39898;SDS011;25571;47.876;10.642;2024-01-11T02:06:35;29.02;;;12.77;;
39898;SDS011;25571;47.876;10.642;2024-01-11T02:09:02;25.25;;;12.15;;
39898;SDS011;25571;47.876;10.642;2024-01-11T02:11:28;29.08;;;13.75;;
39898;SDS011;25571;47.876;10.642;2024-01-11T02:13:55;29.02;;;13.25;;
39898;SDS011;25571;47.876;10.642;2024-01-11T02:16:20;28.38;;;12.77;;
39898;SDS011;25571;47.876;10.642;2024-01-11T02:18:46;27.20;;;12.32;;
39898;SDS011;25571;47.876;10.642;2024-01-11T02:21:13;23.60;;;12.00;;
39898;SDS011;25571;47.876;10.642;2024-01-11T02:23:43;27.63;;;13.18;;
39898;SDS011;25571;47.876;10.642;2024-01-11T02:26:14;23.20;;;11.27;;
39898;SDS011;25571;47.876;10.642;2024-01-11T02:28:43;27.60;;;12.93;;
39898;SDS011;25571;47.876;10.642;2024-01-11T02:31:10;28.27;;;12.60;;
39898;SDS011;25571;47.876;10.642;2024-01-11T02:33:37;22.95;;;11.38;;
39898;SDS011;25571;47.876;10.642;2024-01-11T02:36:04;22.90;;;10.73;;
39898;SDS011;25571;47.876;10.642;2024-01-11T02:38:30;23.05;;;11.57;;
39898;SDS011;25571;47.876;10.642;2024-01-11T02:40:58;23.38;;;11.50;;
39898;SDS011;25571;47.876;10.642;2024-01-11T02:43:24;24.10;;;11.32;;
39898;SDS011;25571;47.876;10.642;2024-01-11T02:45:50;20.02;;;10.02;;
39898;SDS011;25571;47.876;10.642;2024-01-11T02:48:19;22.40;;;11.23;;
39898;SDS011;25571;47.876;10.642;2024-01-11T02:50:44;20.55;;;10.90;;
39898;SDS011;25571;47.876;10.642;2024-01-11T02:53:10;19.85;;;10.63;;
39898;SDS011;25571;47.876;10.642;2024-01-11T02:55:35;21.75;;;11.18;;
39898;SDS011;25571;47.876;10.642;2024-01-11T02:58:01;24.45;;;12.88;;
39898;SDS011;25571;47.876;10.642;2024-01-11T03:00:26;22.83;;;11.38;;
39898;SDS011;25571;47.876;10.642;2024-01-11T03:02:52;21.67;;;11.93;;
39898;SDS011;25571;47.876;10.642;2024-01-11T03:05:18;18.83;;;10.60;;
39898;SDS011;25571;47.876;10.642;2024-01-11T03:07:43;18.80;;;9.95;;
39898;SDS011;25571;47.876;10.642;2024-01-11T03:10:09;16.23;;;9.60;;
39898;SDS011;25571;47.876;10.642;2024-01-11T03:12:34;19.90;;;10.68;;
39898;SDS011;25571;47.876;10.642;2024-01-11T03:15:00;17.30;;;9.43;;
39898;SDS011;25571;47.876;10.642;2024-01-11T03:17:26;17.92;;;10.38;;
39898;SDS011;25571;47.876;10.642;2024-01-11T03:19:51;18.25;;;10.27;;
39898;SDS011;25571;47.876;10.642;2024-01-11T03:22:17;20.75;;;11.93;;
39898;SDS011;25571;47.876;10.642;2024-01-11T03:24:43;17.23;;;10.43;;
39898;SDS011;25571;47.876;10.642;2024-01-11T03:27:08;17.90;;;10.95;;
39898;SDS011;25571;47.876;10.642;2024-01-11T03:29:34;15.18;;;9.85;;
39898;SDS011;25571;47.876;10.642;2024-01-11T03:31:59;15.85;;;9.70;;
39898;SDS011;25571;47.876;10.642;2024-01-11T03:34:25;16.90;;;10.38;;
39898;SDS011;25571;47.876;10.642;2024-01-11T03:36:51;19.45;;;10.23;;
39898;SDS011;25571;47.876;10.642;2024-01-11T03:39:16;20.20;;;11.70;;
39898;SDS011;25571;47.876;10.642;2024-01-11T03:41:45;16.48;;;9.82;;
39898;SDS011;25571;47.876;10.642;2024-01-11T03:44:11;20.80;;;9.85;;
39898;SDS011;25571;47.876;10.642;2024-01-11T03:46:37;18.88;;;9.65;;
39898;SDS011;25571;47.876;10.642;2024-01-11T03:49:03;20.02;;;10.45;;
39898;SDS011;25571;47.876;10.642;2024-01-11T03:51:28;21.85;;;10.50;;
39898;SDS011;25571;47.876;10.642;2024-01-11T03:53:54;26.05;;;11.63;;
39898;SDS011;25571;47.876;10.642;2024-01-11T03:56:20;21.92;;;10.07;;
39898;SDS011;25571;47.876;10.642;2024-01-11T03:58:45;24.13;;;10.55;;
39898;SDS011;25571;47.876;10.642;2024-01-11T04:01:11;23.77;;;11.45;;
39898;SDS011;25571;47.876;10.642;2024-01-11T04:03:36;23.27;;;10.88;;
39898;SDS011;25571;47.876;10.642;2024-01-11T04:06:03;22.95;;;10.75;;
39898;SDS011;25571;47.876;10.642;2024-01-11T04:08:29;20.88;;;10.15;;
39898;SDS011;25571;47.876;10.642;2024-01-11T04:10:54;27.17;;;11.68;;
39898;SDS011;25571;47.876;10.642;2024-01-11T04:13:20;27.48;;;11.30;;
39898;SDS011;25571;47.876;10.642;2024-01-11T04:15:45;22.63;;;10.63;;
39898;SDS011;25571;47.876;10.642;2024-01-11T04:18:11;23.15;;;10.45;;
39898;SDS011;25571;47.876;10.642;2024-01-11T04:20:37;25.10;;;11.57;;
39898;SDS011;25571;47.876;10.642;2024-01-11T04:23:02;22.75;;;10.27;;
39898;SDS011;25571;47.876;10.642;2024-01-11T04:25:28;24.20;;;11.70;;
39898;SDS011;25571;47.876;10.642;2024-01-11T04:27:53;25.65;;;11.15;;
39898;SDS011;25571;47.876;10.642;2024-01-11T04:30:19;24.20;;;11.10;;
39898;SDS011;25571;47.876;10.642;2024-01-11T04:32:45;24.42;;;10.45;;
39898;SDS011;25571;47.876;10.642;2024-01-11T04:35:10;22.33;;;9.68;;
39898;SDS011;25571;47.876;10.642;2024-01-11T04:37:36;20.23;;;10.15;;
39898;SDS011;25571;47.876;10.642;2024-01-11T04:40:02;20.13;;;10.25;;
39898;SDS011;25571;47.876;10.642;2024-01-11T04:42:28;20.05;;;9.68;;
39898;SDS011;25571;47.876;10.642;2024-01-11T04:44:54;21.17;;;9.65;;
39898;SDS011;25571;47.876;10.642;2024-01-11T04:47:20;24.55;;;10.77;;
39898;SDS011;25571;47.876;10.642;2024-01-11T04:49:45;22.27;;;10.55;;
39898;SDS011;25571;47.876;10.642;2024-01-11T04:52:11;18.63;;;9.02;;
39898;SDS011;25571;47.876;10.642;2024-01-11T04:54:36;21.65;;;10.00;;
39898;SDS011;25571;47.876;10.642;2024-01-11T04:57:03;17.48;;;10.10;;
39898;SDS011;25571;47.876;10.642;2024-01-11T04:59:28;19.20;;;10.00;;
39898;SDS011;25571;47.876;10.642;2024-01-11T05:01:54;18.67;;;10.13;;
39898;SDS011;25571;47.876;10.642;2024-01-11T05:04:20;18.77;;;10.30;;
39898;SDS011;25571;47.876;10.642;2024-01-11T05:06:45;20.58;;;10.80;;
39898;SDS011;25571;47.876;10.642;2024-01-11T05:09:11;30.17;;;15.77;;
39898;SDS011;25571;47.876;10.642;2024-01-11T05:11:37;23.58;;;11.30;;
39898;SDS011;25571;47.876;10.642;2024-01-11T05:14:02;20.90;;;10.68;;
39898;SDS011;25571;47.876;10.642;2024-01-11T05:16:28;19.10;;;9.57;;
39898;SDS011;25571;47.876;10.642;2024-01-11T05:18:55;19.63;;;9.43;;
39898;SDS011;25571;47.876;10.642;2024-01-11T05:21:22;21.27;;;9.90;;
39898;SDS011;25571;47.876;10.642;2024-01-11T05:23:49;17.88;;;9.25;;
39898;SDS011;25571;47.876;10.642;2024-01-11T05:26:15;23.10;;;11.23;;
39898;SDS011;25571;47.876;10.642;2024-01-11T05:28:41;19.65;;;10.23;;
39898;SDS011;25571;47.876;10.642;2024-01-11T05:31:11;21.38;;;10.15;;
39898;SDS011;25571;47.876;10.642;2024-01-11T05:33:39;19.60;;;10.50;;
39898;SDS011;25571;47.876;10.642;2024-01-11T05:36:04;21.40;;;10.43;;
39898;SDS011;25571;47.876;10.642;2024-01-11T05:38:31;19.70;;;10.30;;
39898;SDS011;25571;47.876;10.642;2024-01-11T05:40:56;19.27;;;9.85;;
39898;SDS011;25571;47.876;10.642;2024-01-11T05:43:22;21.25;;;10.32;;
39898;SDS011;25571;47.876;10.642;2024-01-11T05:45:48;20.98;;;10.48;;
39898;SDS011;25571;47.876;10.642;2024-01-11T05:48:15;18.58;;;9.38;;
39898;SDS011;25571;47.876;10.642;2024-01-11T05:50:41;19.42;;;9.63;;
39898;SDS011;25571;47.876;10.642;2024-01-11T05:53:07;19.45;;;9.82;;
39898;SDS011;25571;47.876;10.642;2024-01-11T05:55:32;22.95;;;10.70;;
39898;SDS011;25571;47.876;10.642;2024-01-11T05:57:58;20.30;;;10.10;;
39898;SDS011;25571;47.876;10.642;2024-01-11T06:00:23;23.35;;;11.50;;
39898;SDS011;25571;47.876;10.642;2024-01-11T06:02:50;21.63;;;10.00;;
39898;SDS011;25571;47.876;10.642;2024-01-11T06:05:15;22.88;;;11.13;;
39898;SDS011;25571;47.876;10.642;2024-01-11T06:07:41;19.95;;;10.38;;
39898;SDS011;25571;47.876;10.642;2024-01-11T06:10:07;20.67;;;10.60;;
39898;SDS011;25571;47.876;10.642;2024-01-11T06:12:34;22.05;;;10.00;;
39898;SDS011;25571;47.876;10.642;2024-01-11T06:15:00;20.25;;;10.38;;
39898;SDS011;25571;47.876;10.642;2024-01-11T06:17:26;20.98;;;11.75;;
39898;SDS011;25571;47.876;10.642;2024-01-11T06:19:52;20.55;;;10.23;;
39898;SDS011;25571;47.876;10.642;2024-01-11T06:22:19;20.35;;;10.32;;
39898;SDS011;25571;47.876;10.642;2024-01-11T06:24:44;21.48;;;10.70;;
39898;SDS011;25571;47.876;10.642;2024-01-11T06:27:10;18.05;;;9.50;;
39898;SDS011;25571;47.876;10.642;2024-01-11T06:29:35;23.17;;;10.57;;
39898;SDS011;25571;47.876;10.642;2024-01-11T06:32:01;25.10;;;11.70;;
39898;SDS011;25571;47.876;10.642;2024-01-11T06:34:27;27.42;;;12.52;;
39898;SDS011;25571;47.876;10.642;2024-01-11T06:36:53;27.63;;;11.68;;
39898;SDS011;25571;47.876;10.642;2024-01-11T06:39:19;26.85;;;11.93;;
39898;SDS011;25571;47.876;10.642;2024-01-11T06:41:45;29.00;;;12.65;;
39898;SDS011;25571;47.876;10.642;2024-01-11T06:44:11;26.83;;;12.10;;
39898;SDS011;25571;47.876;10.642;2024-01-11T06:46:36;23.73;;;11.70;;
39898;SDS011;25571;47.876;10.642;2024-01-11T06:49:04;26.63;;;11.80;;
39898;SDS011;25571;47.876;10.642;2024-01-11T06:51:30;25.50;;;11.32;;
39898;SDS011;25571;47.876;10.642;2024-01-11T06:53:55;21.10;;;10.38;;
39898;SDS011;25571;47.876;10.642;2024-01-11T06:56:21;32.85;;;13.95;;
39898;SDS011;25571;47.876;10.642;2024-01-11T06:58:47;31.10;;;14.60;;
39898;SDS011;25571;47.876;10.642;2024-01-11T07:01:12;28.90;;;13.80;;
39898;SDS011;25571;47.876;10.642;2024-01-11T07:03:38;30.65;;;12.55;;
39898;SDS011;25571;47.876;10.642;2024-01-11T07:06:04;29.95;;;13.02;;
39898;SDS011;25571;47.876;10.642;2024-01-11T07:08:30;31.80;;;11.98;;
39898;SDS011;25571;47.876;10.642;2024-01-11T07:10:57;30.27;;;11.93;;
39898;SDS011;25571;47.876;10.642;2024-01-11T07:13:24;25.15;;;12.25;;
39898;SDS011;25571;47.876;10.642;2024-01-11T07:15:50;31.63;;;11.48;;
39898;SDS011;25571;47.876;10.642;2024-01-11T07:18:17;27.92;;;12.35;;
39898;SDS011;25571;47.876;10.642;2024-01-11T07:20:43;27.15;;;12.95;;
39898;SDS011;25571;47.876;10.642;2024-01-11T07:23:09;27.85;;;12.52;;
39898;SDS011;25571;47.876;10.642;2024-01-11T07:25:35;28.55;;;12.32;;
39898;SDS011;25571;47.876;10.642;2024-01-11T07:28:00;26.05;;;11.48;;
39898;SDS011;25571;47.876;10.642;2024-01-11T07:30:26;27.13;;;11.90;;
39898;SDS011;25571;47.876;10.642;2024-01-11T07:32:52;35.45;;;13.82;;
39898;SDS011;25571;47.876;10.642;2024-01-11T07:35:18;30.92;;;13.43;;
39898;SDS011;25571;47.876;10.642;2024-01-11T07:37:43;31.27;;;12.45;;
39898;SDS011;25571;47.876;10.642;2024-01-11T07:40:09;31.38;;;13.43;;
39898;SDS011;25571;47.876;10.642;2024-01-11T07:42:39;28.77;;;12.80;;
39898;SDS011;25571;47.876;10.642;2024-01-11T07:45:05;34.90;;;13.13;;
39898;SDS011;25571;47.876;10.642;2024-01-11T07:47:32;28.25;;;13.18;;
39898;SDS011;25571;47.876;10.642;2024-01-11T07:49:58;33.08;;;13.15;;
39898;SDS011;25571;47.876;10.642;2024-01-11T07:52:23;32.35;;;13.25;;
39898;SDS011;25571;47.876;10.642;2024-01-11T07:54:49;28.83;;;13.20;;
39898;SDS011;25571;47.876;10.642;2024-01-11T07:57:14;30.75;;;12.95;;
39898;SDS011;25571;47.876;10.642;2024-01-11T07:59:40;33.17;;;14.10;;
39898;SDS011;25571;47.876;10.642;2024-01-11T08:02:06;36.28;;;14.07;;
39898;SDS011;25571;47.876;10.642;2024-01-11T08:04:32;30.95;;;12.50;;
39898;SDS011;25571;47.876;10.642;2024-01-11T08:06:58;30.02;;;13.07;;
39898;SDS011;25571;47.876;10.642;2024-01-11T08:09:24;31.63;;;13.02;;
39898;SDS011;25571;47.876;10.642;2024-01-11T08:11:53;28.45;;;12.15;;
39898;SDS011;25571;47.876;10.642;2024-01-11T08:14:22;28.58;;;11.35;;
39898;SDS011;25571;47.876;10.642;2024-01-11T08:16:49;33.28;;;13.52;;
39898;SDS011;25571;47.876;10.642;2024-01-11T08:19:15;28.95;;;13.23;;
39898;SDS011;25571;47.876;10.642;2024-01-11T08:21:41;28.20;;;11.32;;
39898;SDS011;25571;47.876;10.642;2024-01-11T08:24:07;31.60;;;12.48;;
39898;SDS011;25571;47.876;10.642;2024-01-11T08:26:33;25.80;;;10.98;;
39898;SDS011;25571;47.876;10.642;2024-01-11T08:28:59;30.88;;;11.60;;
39898;SDS011;25571;47.876;10.642;2024-01-11T08:31:24;31.85;;;14.15;;
39898;SDS011;25571;47.876;10.642;2024-01-11T08:33:50;29.55;;;13.00;;
39898;SDS011;25571;47.876;10.642;2024-01-11T08:36:16;29.20;;;13.05;;
39898;SDS011;25571;47.876;10.642;2024-01-11T08:38:41;25.55;;;10.68;;
39898;SDS011;25571;47.876;10.642;2024-01-11T08:41:07;31.13;;;12.35;;
39898;SDS011;25571;47.876;10.642;2024-01-11T08:43:33;28.02;;;11.63;;
39898;SDS011;25571;47.876;10.642;2024-01-11T08:45:59;29.70;;;12.45;;
39898;SDS011;25571;47.876;10.642;2024-01-11T08:48:25;31.83;;;13.43;;
39898;SDS011;25571;47.876;10.642;2024-01-11T08:50:51;24.10;;;11.70;;
39898;SDS011;25571;47.876;10.642;2024-01-11T08:53:16;29.05;;;13.00;;
39898;SDS011;25571;47.876;10.642;2024-01-11T08:55:42;28.63;;;11.85;;
39898;SDS011;25571;47.876;10.642;2024-01-11T08:58:08;27.50;;;12.25;;
39898;SDS011;25571;47.876;10.642;2024-01-11T09:00:34;28.67;;;11.50;;
39898;SDS011;25571;47.876;10.642;2024-01-11T09:03:00;28.38;;;13.10;;
39898;SDS011;25571;47.876;10.642;2024-01-11T09:05:25;27.90;;;12.88;;
39898;SDS011;25571;47.876;10.642;2024-01-11T09:07:51;29.55;;;11.50;;
39898;SDS011;25571;47.876;10.642;2024-01-11T09:10:17;27.83;;;11.18;;
39898;SDS011;25571;47.876;10.642;2024-01-11T09:12:42;28.15;;;11.35;;
39898;SDS011;25571;47.876;10.642;2024-01-11T09:15:08;29.67;;;11.23;;
39898;SDS011;25571;47.876;10.642;2024-01-11T09:17:35;24.10;;;10.60;;
39898;SDS011;25571;47.876;10.642;2024-01-11T09:20:01;25.00;;;11.00;;
39898;SDS011;25571;47.876;10.642;2024-01-11T09:22:27;28.15;;;12.02;;
39898;SDS011;25571;47.876;10.642;2024-01-11T09:24:53;25.63;;;11.55;;
39898;SDS011;25571;47.876;10.642;2024-01-11T09:27:18;28.27;;;11.85;;
39898;SDS011;25571;47.876;10.642;2024-01-11T09:29:47;25.88;;;12.27;;
39898;SDS011;25571;47.876;10.642;2024-01-11T09:32:12;21.90;;;10.65;;
39898;SDS011;25571;47.876;10.642;2024-01-11T09:34:38;26.75;;;11.15;;
39898;SDS011;25571;47.876;10.642;2024-01-11T09:37:04;31.08;;;13.35;;
39898;SDS011;25571;47.876;10.642;2024-01-11T09:39:29;32.47;;;13.43;;
39898;SDS011;25571;47.876;10.642;2024-01-11T09:41:58;32.25;;;13.75;;
39898;SDS011;25571;47.876;10.642;2024-01-11T09:44:28;29.83;;;13.27;;
39898;SDS011;25571;47.876;10.642;2024-01-11T09:46:55;27.42;;;12.02;;
39898;SDS011;25571;47.876;10.642;2024-01-11T09:49:23;29.33;;;12.10;;
39898;SDS011;25571;47.876;10.642;2024-01-11T09:51:49;34.00;;;13.55;;
39898;SDS011;25571;47.876;10.642;2024-01-11T09:54:16;29.40;;;12.18;;
39898;SDS011;25571;47.876;10.642;2024-01-11T09:56:46;29.50;;;12.73;;
39898;SDS011;25571;47.876;10.642;2024-01-11T09:59:12;26.73;;;11.85;;
39898;SDS011;25571;47.876;10.642;2024-01-11T10:01:38;25.50;;;11.45;;
39898;SDS011;25571;47.876;10.642;2024-01-11T10:04:03;34.08;;;14.27;;
39898;SDS011;25571;47.876;10.642;2024-01-11T10:06:31;30.98;;;12.77;;
39898;SDS011;25571;47.876;10.642;2024-01-11T10:11:24;36.90;;;11.80;;
39898;SDS011;25571;47.876;10.642;2024-01-11T10:13:55;32.25;;;12.65;;
39898;SDS011;25571;47.876;10.642;2024-01-11T10:16:22;26.88;;;11.93;;
39898;SDS011;25571;47.876;10.642;2024-01-11T10:18:49;28.05;;;12.13;;
39898;SDS011;25571;47.876;10.642;2024-01-11T10:21:15;33.60;;;14.18;;
39898;SDS011;25571;47.876;10.642;2024-01-11T10:23:40;25.80;;;12.60;;
39898;SDS011;25571;47.876;10.642;2024-01-11T10:26:07;25.38;;;11.70;;
39898;SDS011;25571;47.876;10.642;2024-01-11T10:28:32;25.23;;;12.48;;
39898;SDS011;25571;47.876;10.642;2024-01-11T10:31:02;25.42;;;11.43;;
39898;SDS011;25571;47.876;10.642;2024-01-11T10:33:34;32.20;;;12.35;;
39898;SDS011;25571;47.876;10.642;2024-01-11T10:36:00;26.95;;;12.80;;
39898;SDS011;25571;47.876;10.642;2024-01-11T10:38:26;26.70;;;10.73;;
39898;SDS011;25571;47.876;10.642;2024-01-11T10:40:59;25.20;;;10.98;;
39898;SDS011;25571;47.876;10.642;2024-01-11T10:43:28;26.92;;;12.52;;
39898;SDS011;25571;47.876;10.642;2024-01-11T10:45:56;25.70;;;11.93;;
39898;SDS011;25571;47.876;10.642;2024-01-11T10:48:25;30.13;;;13.30;;
39898;SDS011;25571;47.876;10.642;2024-01-11T10:51:00;30.05;;;13.80;;
39898;SDS011;25571;47.876;10.642;2024-01-11T10:58:26;28.92;;;12.77;;
39898;SDS011;25571;47.876;10.642;2024-01-11T11:00:53;35.40;;;15.43;;
39898;SDS011;25571;47.876;10.642;2024-01-11T11:03:23;28.90;;;12.80;;
39898;SDS011;25571;47.876;10.642;2024-01-11T11:05:54;29.70;;;13.13;;
39898;SDS011;25571;47.876;10.642;2024-01-11T11:08:22;33.60;;;14.48;;
39898;SDS011;25571;47.876;10.642;2024-01-11T11:10:50;26.00;;;11.25;;
39898;SDS011;25571;47.876;10.642;2024-01-11T11:13:21;27.95;;;12.30;;
39898;SDS011;25571;47.876;10.642;2024-01-11T11:15:47;27.15;;;12.88;;
39898;SDS011;25571;47.876;10.642;2024-01-11T11:18:16;30.85;;;13.70;;
39898;SDS011;25571;47.876;10.642;2024-01-11T11:20:43;28.67;;;11.23;;
39898;SDS011;25571;47.876;10.642;2024-01-11T11:23:10;27.23;;;12.77;;
39898;SDS011;25571;47.876;10.642;2024-01-11T11:25:37;25.75;;;11.73;;
39898;SDS011;25571;47.876;10.642;2024-01-11T11:28:05;23.00;;;10.98;;
39898;SDS011;25571;47.876;10.642;2024-01-11T11:30:31;24.17;;;11.68;;
39898;SDS011;25571;47.876;10.642;2024-01-11T11:35:35;25.67;;;12.00;;
39898;SDS011;25571;47.876;10.642;2024-01-11T11:38:01;25.23;;;12.73;;
39898;SDS011;25571;47.876;10.642;2024-01-11T11:40:36;22.90;;;11.02;;
39898;SDS011;25571;47.876;10.642;2024-01-11T11:43:05;24.05;;;11.10;;
39898;SDS011;25571;47.876;10.642;2024-01-11T11:45:31;24.88;;;11.68;;
39898;SDS011;25571;47.876;10.642;2024-01-11T11:47:57;24.42;;;11.45;;
39898;SDS011;25571;47.876;10.642;2024-01-11T11:50:23;27.13;;;11.68;;
39898;SDS011;25571;47.876;10.642;2024-01-11T11:52:55;25.27;;;12.40;;
39898;SDS011;25571;47.876;10.642;2024-01-11T11:55:24;25.88;;;12.82;;
39898;SDS011;25571;47.876;10.642;2024-01-11T11:57:51;28.08;;;13.68;;
39898;SDS011;25571;47.876;10.642;2024-01-11T12:00:18;29.65;;;13.15;;
39898;SDS011;25571;47.876;10.642;2024-01-11T12:02:46;29.98;;;13.23;;
39898;SDS011;25571;47.876;10.642;2024-01-11T12:05:17;27.88;;;13.02;;
39898;SDS011;25571;47.876;10.642;2024-01-11T12:07:45;30.00;;;14.10;;
39898;SDS011;25571;47.876;10.642;2024-01-11T12:10:12;28.92;;;14.05;;
39898;SDS011;25571;47.876;10.642;2024-01-11T12:12:37;32.80;;;14.68;;
39898;SDS011;25571;47.876;10.642;2024-01-11T12:15:04;33.13;;;14.85;;
39898;SDS011;25571;47.876;10.642;2024-01-11T12:17:30;30.85;;;14.20;;
39898;SDS011;25571;47.876;10.642;2024-01-11T12:19:56;31.30;;;14.23;;
39898;SDS011;25571;47.876;10.642;2024-01-11T12:22:23;34.78;;;15.23;;
39898;SDS011;25571;47.876;10.642;2024-01-11T12:24:49;33.13;;;14.45;;
39898;SDS011;25571;47.876;10.642;2024-01-11T12:27:15;28.60;;;13.25;;
39898;SDS011;25571;47.876;10.642;2024-01-11T12:29:41;29.25;;;13.88;;
39898;SDS011;25571;47.876;10.642;2024-01-11T12:32:07;25.52;;;12.82;;
39898;SDS011;25571;47.876;10.642;2024-01-11T12:34:36;27.05;;;14.05;;
39898;SDS011;25571;47.876;10.642;2024-01-11T12:37:01;23.88;;;12.10;;
39898;SDS011;25571;47.876;10.642;2024-01-11T12:39:30;23.98;;;11.70;;
39898;SDS011;25571;47.876;10.642;2024-01-11T12:41:56;23.13;;;10.77;;
39898;SDS011;25571;47.876;10.642;2024-01-11T12:44:22;23.20;;;11.82;;
39898;SDS011;25571;47.876;10.642;2024-01-11T12:46:50;24.00;;;11.70;;
39898;SDS011;25571;47.876;10.642;2024-01-11T12:49:17;25.57;;;12.03;;
39898;SDS011;25571;47.876;10.642;2024-01-11T12:51:42;23.98;;;11.55;;
39898;SDS011;25571;47.876;10.642;2024-01-11T12:54:11;22.20;;;10.70;;
39898;SDS011;25571;47.876;10.642;2024-01-11T12:56:44;22.05;;;11.15;;
39898;SDS011;25571;47.876;10.642;2024-01-11T12:59:10;23.27;;;11.95;;
39898;SDS011;25571;47.876;10.642;2024-01-11T13:01:40;28.13;;;13.20;;
39898;SDS011;25571;47.876;10.642;2024-01-11T13:04:07;25.50;;;12.75;;
39898;SDS011;25571;47.876;10.642;2024-01-11T13:06:34;21.83;;;11.45;;
39898;SDS011;25571;47.876;10.642;2024-01-11T13:09:00;32.30;;;13.30;;
39898;SDS011;25571;47.876;10.642;2024-01-11T13:11:26;26.45;;;12.57;;
39898;SDS011;25571;47.876;10.642;2024-01-11T13:13:53;22.35;;;10.77;;
39898;SDS011;25571;47.876;10.642;2024-01-11T13:16:19;22.25;;;10.15;;
39898;SDS011;25571;47.876;10.642;2024-01-11T13:18:45;26.00;;;12.07;;
39898;SDS011;25571;47.876;10.642;2024-01-11T13:21:11;23.05;;;12.07;;
39898;SDS011;25571;47.876;10.642;2024-01-11T13:23:39;26.73;;;12.88;;
39898;SDS011;25571;47.876;10.642;2024-01-11T13:26:05;25.63;;;13.90;;
39898;SDS011;25571;47.876;10.642;2024-01-11T13:28:35;24.85;;;12.90;;
39898;SDS011;25571;47.876;10.642;2024-01-11T13:31:01;23.13;;;11.52;;
39898;SDS011;25571;47.876;10.642;2024-01-11T13:33:27;20.63;;;10.10;;
39898;SDS011;25571;47.876;10.642;2024-01-11T13:35:53;22.92;;;10.30;;
39898;SDS011;25571;47.876;10.642;2024-01-11T13:38:19;23.23;;;11.18;;
39898;SDS011;25571;47.876;10.642;2024-01-11T13:40:45;20.45;;;9.93;;
39898;SDS011;25571;47.876;10.642;2024-01-11T13:43:10;17.85;;;9.52;;
39898;SDS011;25571;47.876;10.642;2024-01-11T13:45:36;22.27;;;11.35;;
39898;SDS011;25571;47.876;10.642;2024-01-11T13:48:02;23.23;;;12.73;;
39898;SDS011;25571;47.876;10.642;2024-01-11T13:50:29;21.58;;;10.55;;
39898;SDS011;25571;47.876;10.642;2024-01-11T13:52:55;23.00;;;11.35;;
39898;SDS011;25571;47.876;10.642;2024-01-11T13:55:20;23.45;;;12.07;;
39898;SDS011;25571;47.876;10.642;2024-01-11T13:57:47;22.42;;;10.85;;
39898;SDS011;25571;47.876;10.642;2024-01-11T14:00:14;25.90;;;11.75;;
39898;SDS011;25571;47.876;10.642;2024-01-11T14:02:42;29.60;;;12.65;;
39898;SDS011;25571;47.876;10.642;2024-01-11T14:05:08;26.52;;;11.80;;
39898;SDS011;25571;47.876;10.642;2024-01-11T14:07:38;22.40;;;10.98;;
39898;SDS011;25571;47.876;10.642;2024-01-11T14:10:04;21.48;;;10.88;;
39898;SDS011;25571;47.876;10.642;2024-01-11T14:12:30;24.15;;;11.95;;
39898;SDS011;25571;47.876;10.642;2024-01-11T14:14:56;25.52;;;11.38;;